sensor_id;sensor_type;location;lat;lon;timestamp;temperature;humidity
75170;SHT31;63749;49.186;9.222;2023-04-08T00:01:51;8.65;82.94
75170;SHT31;63749;49.186;9.222;2023-04-08T00:04:17;8.71;82.73
75170;SHT31;63749;49.186;9.222;2023-04-08T00:06:42;8.69;82.74
75170;SHT31;63749;49.186;9.222;2023-04-08T00:09:07;8.63;83.08
75170;SHT31;63749;49.186;9.222;2023-04-08T00:11:33;8.68;83.11
75170;SHT31;63749;49.186;9.222;2023-04-08T00:13:59;8.62;83.08
75170;SHT31;63749;49.186;9.222;2023-04-08T00:16:24;8.52;83.28
75170;SHT31;63749;49.186;9.222;2023-04-08T00:18:50;8.49;83.53
75170;SHT31;63749;49.186;9.222;2023-04-08T00:21:16;8.46;83.51
75170;SHT31;63749;49.186;9.222;2023-04-08T00:23:42;8.48;83.86
75170;SHT31;63749;49.186;9.222;2023-04-08T00:26:08;8.42;83.71
75170;SHT31;63749;49.186;9.222;2023-04-08T00:28:33;8.41;83.83
75170;SHT31;63749;49.186;9.222;2023-04-08T00:30:58;8.42;83.79
75170;SHT31;63749;49.186;9.222;2023-04-08T00:33:24;8.30;83.94
75170;SHT31;63749;49.186;9.222;2023-04-08T00:35:49;8.28;84.02
75170;SHT31;63749;49.186;9.222;2023-04-08T00:38:15;8.25;84.18
75170;SHT31;63749;49.186;9.222;2023-04-08T00:40:41;8.15;84.62
75170;SHT31;63749;49.186;9.222;2023-04-08T00:43:06;8.13;85.11
75170;SHT31;63749;49.186;9.222;2023-04-08T00:45:32;8.03;85.65
75170;SHT31;63749;49.186;9.222;2023-04-08T00:47:58;7.95;85.93
75170;SHT31;63749;49.186;9.222;2023-04-08T00:50:23;7.95;86.22
75170;SHT31;63749;49.186;9.222;2023-04-08T00:52:49;7.95;85.85
75170;SHT31;63749;49.186;9.222;2023-04-08T00:55:14;7.90;85.60
75170;SHT31;63749;49.186;9.222;2023-04-08T00:57:40;7.77;86.05
75170;SHT31;63749;49.186;9.222;2023-04-08T01:00:06;7.73;86.17
75170;SHT31;63749;49.186;9.222;2023-04-08T01:02:52;7.63;86.70
75170;SHT31;63749;49.186;9.222;2023-04-08T01:05:27;7.52;86.70
75170;SHT31;63749;49.186;9.222;2023-04-08T01:07:53;7.42;87.20
75170;SHT31;63749;49.186;9.222;2023-04-08T01:10:24;7.32;87.52
75170;SHT31;63749;49.186;9.222;2023-04-08T01:12:56;7.32;87.90
75170;SHT31;63749;49.186;9.222;2023-04-08T01:15:23;7.31;87.62
75170;SHT31;63749;49.186;9.222;2023-04-08T01:17:52;7.29;87.88
75170;SHT31;63749;49.186;9.222;2023-04-08T01:20:19;7.24;88.07
75170;SHT31;63749;49.186;9.222;2023-04-08T01:25:55;7.09;88.38
75170;SHT31;63749;49.186;9.222;2023-04-08T01:28:23;7.11;88.64
75170;SHT31;63749;49.186;9.222;2023-04-08T01:30:50;7.08;88.80
75170;SHT31;63749;49.186;9.222;2023-04-08T01:33:17;7.08;88.67
75170;SHT31;63749;49.186;9.222;2023-04-08T01:35:44;7.07;88.77
75170;SHT31;63749;49.186;9.222;2023-04-08T01:38:13;7.09;88.50
75170;SHT31;63749;49.186;9.222;2023-04-08T01:40:39;7.05;88.47
75170;SHT31;63749;49.186;9.222;2023-04-08T01:43:07;6.98;88.51
75170;SHT31;63749;49.186;9.222;2023-04-08T01:45:34;6.90;88.70
75170;SHT31;63749;49.186;9.222;2023-04-08T01:48:00;6.88;89.01
75170;SHT31;63749;49.186;9.222;2023-04-08T01:50:26;6.84;89.04
75170;SHT31;63749;49.186;9.222;2023-04-08T01:52:53;6.83;89.17
75170;SHT31;63749;49.186;9.222;2023-04-08T01:55:20;6.81;89.31
75170;SHT31;63749;49.186;9.222;2023-04-08T01:57:51;6.77;89.57
75170;SHT31;63749;49.186;9.222;2023-04-08T02:00:19;6.72;89.57
75170;SHT31;63749;49.186;9.222;2023-04-08T02:02:47;6.69;89.83
75170;SHT31;63749;49.186;9.222;2023-04-08T02:05:13;6.69;89.98
75170;SHT31;63749;49.186;9.222;2023-04-08T02:07:38;6.66;90.01
75170;SHT31;63749;49.186;9.222;2023-04-08T02:10:05;6.57;90.36
75170;SHT31;63749;49.186;9.222;2023-04-08T02:12:32;6.50;90.50
75170;SHT31;63749;49.186;9.222;2023-04-08T02:14:57;6.45;90.83
75170;SHT31;63749;49.186;9.222;2023-04-08T02:17:45;6.45;90.93
75170;SHT31;63749;49.186;9.222;2023-04-08T02:20:42;6.43;91.15
75170;SHT31;63749;49.186;9.222;2023-04-08T02:23:08;6.42;91.35
75170;SHT31;63749;49.186;9.222;2023-04-08T02:25:37;6.43;91.44
75170;SHT31;63749;49.186;9.222;2023-04-08T02:28:05;6.43;91.55
75170;SHT31;63749;49.186;9.222;2023-04-08T02:30:31;6.46;91.56
75170;SHT31;63749;49.186;9.222;2023-04-08T02:32:57;6.45;91.51
75170;SHT31;63749;49.186;9.222;2023-04-08T02:35:25;6.43;91.56
75170;SHT31;63749;49.186;9.222;2023-04-08T02:37:51;6.39;91.48
75170;SHT31;63749;49.186;9.222;2023-04-08T02:40:30;6.37;91.64
75170;SHT31;63749;49.186;9.222;2023-04-08T02:42:56;6.30;91.82
75170;SHT31;63749;49.186;9.222;2023-04-08T02:45:26;6.26;91.91
75170;SHT31;63749;49.186;9.222;2023-04-08T02:47:52;6.24;91.99
75170;SHT31;63749;49.186;9.222;2023-04-08T02:50:17;6.18;92.16
75170;SHT31;63749;49.186;9.222;2023-04-08T02:52:43;6.11;92.20
75170;SHT31;63749;49.186;9.222;2023-04-08T02:55:09;6.08;92.29
75170;SHT31;63749;49.186;9.222;2023-04-08T02:57:36;6.05;92.75
75170;SHT31;63749;49.186;9.222;2023-04-08T03:00:03;6.04;92.77
75170;SHT31;63749;49.186;9.222;2023-04-08T03:02:29;5.98;92.63
75170;SHT31;63749;49.186;9.222;2023-04-08T03:04:54;5.98;92.83
75170;SHT31;63749;49.186;9.222;2023-04-08T03:07:20;5.95;92.99
75170;SHT31;63749;49.186;9.222;2023-04-08T03:09:45;5.93;92.85
75170;SHT31;63749;49.186;9.222;2023-04-08T03:12:10;5.88;93.29
75170;SHT31;63749;49.186;9.222;2023-04-08T03:14:36;5.85;93.42
75170;SHT31;63749;49.186;9.222;2023-04-08T03:17:01;5.83;93.47
75170;SHT31;63749;49.186;9.222;2023-04-08T03:19:26;5.85;93.58
75170;SHT31;63749;49.186;9.222;2023-04-08T03:21:52;5.75;93.63
75170;SHT31;63749;49.186;9.222;2023-04-08T03:24:17;5.75;93.84
75170;SHT31;63749;49.186;9.222;2023-04-08T03:26:42;5.73;93.84
75170;SHT31;63749;49.186;9.222;2023-04-08T03:29:08;5.70;93.87
75170;SHT31;63749;49.186;9.222;2023-04-08T03:31:34;5.75;94.31
75170;SHT31;63749;49.186;9.222;2023-04-08T03:33:59;5.73;93.99
75170;SHT31;63749;49.186;9.222;2023-04-08T03:36:25;5.71;94.07
75170;SHT31;63749;49.186;9.222;2023-04-08T03:38:51;5.68;94.38
75170;SHT31;63749;49.186;9.222;2023-04-08T03:41:16;5.65;94.22
75170;SHT31;63749;49.186;9.222;2023-04-08T03:43:41;5.64;94.39
75170;SHT31;63749;49.186;9.222;2023-04-08T03:46:07;5.68;94.56
75170;SHT31;63749;49.186;9.222;2023-04-08T03:48:32;5.67;94.63
75170;SHT31;63749;49.186;9.222;2023-04-08T03:50:57;5.57;94.67
75170;SHT31;63749;49.186;9.222;2023-04-08T03:53:23;5.57;95.05
75170;SHT31;63749;49.186;9.222;2023-04-08T03:55:48;5.50;95.06
75170;SHT31;63749;49.186;9.222;2023-04-08T03:58:17;5.48;95.20
75170;SHT31;63749;49.186;9.222;2023-04-08T04:00:42;5.44;95.37
75170;SHT31;63749;49.186;9.222;2023-04-08T04:03:07;5.39;95.33
75170;SHT31;63749;49.186;9.222;2023-04-08T04:05:34;5.35;95.38
75170;SHT31;63749;49.186;9.222;2023-04-08T04:08:01;5.35;95.59
75170;SHT31;63749;49.186;9.222;2023-04-08T04:10:26;5.33;95.61
75170;SHT31;63749;49.186;9.222;2023-04-08T04:12:51;5.36;95.87
75170;SHT31;63749;49.186;9.222;2023-04-08T04:15:17;5.35;95.65
75170;SHT31;63749;49.186;9.222;2023-04-08T04:17:42;5.26;95.51
75170;SHT31;63749;49.186;9.222;2023-04-08T04:20:08;5.27;95.77
75170;SHT31;63749;49.186;9.222;2023-04-08T04:22:33;5.30;95.77
75170;SHT31;63749;49.186;9.222;2023-04-08T04:24:59;5.26;95.73
75170;SHT31;63749;49.186;9.222;2023-04-08T04:27:24;5.32;96.01
75170;SHT31;63749;49.186;9.222;2023-04-08T04:29:49;5.33;96.09
75170;SHT31;63749;49.186;9.222;2023-04-08T04:32:15;5.36;96.14
75170;SHT31;63749;49.186;9.222;2023-04-08T04:34:40;5.35;96.09
75170;SHT31;63749;49.186;9.222;2023-04-08T04:37:06;5.40;96.13
75170;SHT31;63749;49.186;9.222;2023-04-08T04:39:31;5.44;95.99
75170;SHT31;63749;49.186;9.222;2023-04-08T04:41:56;5.46;95.81
75170;SHT31;63749;49.186;9.222;2023-04-08T04:44:22;5.46;95.94
75170;SHT31;63749;49.186;9.222;2023-04-08T04:46:48;5.47;95.82
75170;SHT31;63749;49.186;9.222;2023-04-08T04:49:13;5.44;95.81
75170;SHT31;63749;49.186;9.222;2023-04-08T04:51:38;5.44;95.71
75170;SHT31;63749;49.186;9.222;2023-04-08T04:54:04;5.47;95.96
75170;SHT31;63749;49.186;9.222;2023-04-08T04:56:29;5.50;95.90
75170;SHT31;63749;49.186;9.222;2023-04-08T04:58:55;5.51;95.75
75170;SHT31;63749;49.186;9.222;2023-04-08T05:01:20;5.51;95.75
75170;SHT31;63749;49.186;9.222;2023-04-08T05:03:45;5.48;95.65
75170;SHT31;63749;49.186;9.222;2023-04-08T05:06:11;5.50;95.63
75170;SHT31;63749;49.186;9.222;2023-04-08T05:08:36;5.53;95.70
75170;SHT31;63749;49.186;9.222;2023-04-08T05:11:01;5.54;95.67
75170;SHT31;63749;49.186;9.222;2023-04-08T05:13:28;5.58;95.65
75170;SHT31;63749;49.186;9.222;2023-04-08T05:15:53;5.65;95.44
75170;SHT31;63749;49.186;9.222;2023-04-08T05:18:18;5.73;95.15
75170;SHT31;63749;49.186;9.222;2023-04-08T05:20:44;5.74;94.96
75170;SHT31;63749;49.186;9.222;2023-04-08T05:23:10;5.75;94.91
75170;SHT31;63749;49.186;9.222;2023-04-08T05:25:36;5.79;94.77
75170;SHT31;63749;49.186;9.222;2023-04-08T05:28:01;5.84;94.77
75170;SHT31;63749;49.186;9.222;2023-04-08T05:30:27;5.91;94.86
75170;SHT31;63749;49.186;9.222;2023-04-08T05:32:53;5.99;94.61
75170;SHT31;63749;49.186;9.222;2023-04-08T05:35:18;6.09;94.44
75170;SHT31;63749;49.186;9.222;2023-04-08T05:37:44;6.16;93.99
75170;SHT31;63749;49.186;9.222;2023-04-08T05:40:09;6.19;93.73
75170;SHT31;63749;49.186;9.222;2023-04-08T05:42:34;6.29;93.67
75170;SHT31;63749;49.186;9.222;2023-04-08T05:45:00;6.32;93.36
75170;SHT31;63749;49.186;9.222;2023-04-08T05:47:25;6.37;93.32
75170;SHT31;63749;49.186;9.222;2023-04-08T05:49:51;6.50;92.77
75170;SHT31;63749;49.186;9.222;2023-04-08T05:52:17;6.53;92.57
75170;SHT31;63749;49.186;9.222;2023-04-08T05:54:42;6.63;92.75
75170;SHT31;63749;49.186;9.222;2023-04-08T05:57:08;6.70;92.32
75170;SHT31;63749;49.186;9.222;2023-04-08T05:59:33;6.77;91.95
75170;SHT31;63749;49.186;9.222;2023-04-08T06:01:59;6.81;91.35
75170;SHT31;63749;49.186;9.222;2023-04-08T06:04:24;6.83;91.24
75170;SHT31;63749;49.186;9.222;2023-04-08T06:06:50;6.87;91.34
75170;SHT31;63749;49.186;9.222;2023-04-08T06:09:15;6.87;91.01
75170;SHT31;63749;49.186;9.222;2023-04-08T06:11:41;6.87;90.97
75170;SHT31;63749;49.186;9.222;2023-04-08T06:14:06;6.97;90.78
75170;SHT31;63749;49.186;9.222;2023-04-08T06:16:31;7.03;90.69
75170;SHT31;63749;49.186;9.222;2023-04-08T06:18:57;7.05;90.61
75170;SHT31;63749;49.186;9.222;2023-04-08T06:21:22;7.19;90.24
75170;SHT31;63749;49.186;9.222;2023-04-08T06:23:48;7.42;89.63
75170;SHT31;63749;49.186;9.222;2023-04-08T06:26:13;7.69;89.07
75170;SHT31;63749;49.186;9.222;2023-04-08T06:28:38;7.97;87.42
75170;SHT31;63749;49.186;9.222;2023-04-08T06:31:04;8.10;86.63
75170;SHT31;63749;49.186;9.222;2023-04-08T06:33:29;8.13;85.96
75170;SHT31;63749;49.186;9.222;2023-04-08T06:36:02;8.25;85.94
75170;SHT31;63749;49.186;9.222;2023-04-08T06:38:28;8.40;85.19
75170;SHT31;63749;49.186;9.222;2023-04-08T06:40:53;8.48;84.97
75170;SHT31;63749;49.186;9.222;2023-04-08T06:43:18;8.54;84.75
75170;SHT31;63749;49.186;9.222;2023-04-08T06:45:44;8.51;84.75
75170;SHT31;63749;49.186;9.222;2023-04-08T06:48:09;8.61;84.57
75170;SHT31;63749;49.186;9.222;2023-04-08T06:50:34;8.72;84.21
75170;SHT31;63749;49.186;9.222;2023-04-08T06:53:00;8.73;83.59
75170;SHT31;63749;49.186;9.222;2023-04-08T06:55:25;8.84;83.31
75170;SHT31;63749;49.186;9.222;2023-04-08T06:57:51;8.96;83.16
75170;SHT31;63749;49.186;9.222;2023-04-08T07:00:16;9.17;81.90
75170;SHT31;63749;49.186;9.222;2023-04-08T07:02:42;9.23;82.28
75170;SHT31;63749;49.186;9.222;2023-04-08T07:05:07;9.30;82.04
75170;SHT31;63749;49.186;9.222;2023-04-08T07:07:32;9.34;81.70
75170;SHT31;63749;49.186;9.222;2023-04-08T07:09:58;9.20;82.14
75170;SHT31;63749;49.186;9.222;2023-04-08T07:12:23;9.17;82.17
75170;SHT31;63749;49.186;9.222;2023-04-08T07:14:48;9.14;82.04
75170;SHT31;63749;49.186;9.222;2023-04-08T07:17:14;9.16;82.25
75170;SHT31;63749;49.186;9.222;2023-04-08T07:19:40;9.22;82.57
75170;SHT31;63749;49.186;9.222;2023-04-08T07:22:05;9.30;81.95
75170;SHT31;63749;49.186;9.222;2023-04-08T07:24:30;9.40;81.51
75170;SHT31;63749;49.186;9.222;2023-04-08T07:26:56;9.30;82.43
75170;SHT31;63749;49.186;9.222;2023-04-08T07:29:21;9.33;81.92
75170;SHT31;63749;49.186;9.222;2023-04-08T07:31:46;9.40;81.15
75170;SHT31;63749;49.186;9.222;2023-04-08T07:34:12;9.44;80.19
75170;SHT31;63749;49.186;9.222;2023-04-08T07:36:37;9.40;80.11
75170;SHT31;63749;49.186;9.222;2023-04-08T07:39:03;9.38;80.23
75170;SHT31;63749;49.186;9.222;2023-04-08T07:41:28;9.52;80.25
75170;SHT31;63749;49.186;9.222;2023-04-08T07:43:54;9.65;79.40
75170;SHT31;63749;49.186;9.222;2023-04-08T07:46:20;9.77;77.96
75170;SHT31;63749;49.186;9.222;2023-04-08T07:48:45;9.81;77.44
75170;SHT31;63749;49.186;9.222;2023-04-08T07:51:11;9.96;76.54
75170;SHT31;63749;49.186;9.222;2023-04-08T07:53:37;10.13;76.41
75170;SHT31;63749;49.186;9.222;2023-04-08T07:56:09;10.16;76.09
75170;SHT31;63749;49.186;9.222;2023-04-08T07:58:35;10.46;74.52
75170;SHT31;63749;49.186;9.222;2023-04-08T08:01:00;10.78;73.90
75170;SHT31;63749;49.186;9.222;2023-04-08T08:03:26;10.63;72.17
75170;SHT31;63749;49.186;9.222;2023-04-08T08:05:51;10.68;71.82
75170;SHT31;63749;49.186;9.222;2023-04-08T08:08:16;10.92;70.12
75170;SHT31;63749;49.186;9.222;2023-04-08T08:10:42;10.98;69.87
75170;SHT31;63749;49.186;9.222;2023-04-08T08:13:07;11.12;68.46
75170;SHT31;63749;49.186;9.222;2023-04-08T08:15:32;11.23;67.70
75170;SHT31;63749;49.186;9.222;2023-04-08T08:17:58;11.39;67.46
75170;SHT31;63749;49.186;9.222;2023-04-08T08:20:23;11.52;67.27
75170;SHT31;63749;49.186;9.222;2023-04-08T08:22:49;11.60;65.93
75170;SHT31;63749;49.186;9.222;2023-04-08T08:25:15;11.52;66.42
75170;SHT31;63749;49.186;9.222;2023-04-08T08:27:40;11.63;66.99
75170;SHT31;63749;49.186;9.222;2023-04-08T08:30:07;11.53;67.07
75170;SHT31;63749;49.186;9.222;2023-04-08T08:32:32;11.69;66.02
75170;SHT31;63749;49.186;9.222;2023-04-08T08:34:58;11.62;66.04
75170;SHT31;63749;49.186;9.222;2023-04-08T08:37:23;11.29;64.51
75170;SHT31;63749;49.186;9.222;2023-04-08T08:39:49;11.58;64.17
75170;SHT31;63749;49.186;9.222;2023-04-08T08:42:24;11.73;62.71
75170;SHT31;63749;49.186;9.222;2023-04-08T08:44:50;11.77;64.44
75170;SHT31;63749;49.186;9.222;2023-04-08T08:47:16;11.89;63.65
75170;SHT31;63749;49.186;9.222;2023-04-08T08:49:42;12.13;62.12
75170;SHT31;63749;49.186;9.222;2023-04-08T08:52:07;12.08;61.74
75170;SHT31;63749;49.186;9.222;2023-04-08T08:54:34;12.28;57.98
75170;SHT31;63749;49.186;9.222;2023-04-08T08:57:00;12.25;55.71
75170;SHT31;63749;49.186;9.222;2023-04-08T08:59:25;12.28;56.04
75170;SHT31;63749;49.186;9.222;2023-04-08T09:01:50;12.32;55.31
75170;SHT31;63749;49.186;9.222;2023-04-08T09:04:20;12.35;56.56
75170;SHT31;63749;49.186;9.222;2023-04-08T09:06:48;12.63;57.06
75170;SHT31;63749;49.186;9.222;2023-04-08T09:09:15;12.97;57.13
75170;SHT31;63749;49.186;9.222;2023-04-08T09:11:45;13.11;56.39
75170;SHT31;63749;49.186;9.222;2023-04-08T09:14:20;12.96;56.83
75170;SHT31;63749;49.186;9.222;2023-04-08T09:16:46;13.11;55.79
75170;SHT31;63749;49.186;9.222;2023-04-08T09:19:11;12.82;55.14
75170;SHT31;63749;49.186;9.222;2023-04-08T09:21:37;13.14;55.26
75170;SHT31;63749;49.186;9.222;2023-04-08T09:24:05;13.18;52.86
75170;SHT31;63749;49.186;9.222;2023-04-08T09:26:30;13.36;53.27
75170;SHT31;63749;49.186;9.222;2023-04-08T09:29:08;13.36;55.73
75170;SHT31;63749;49.186;9.222;2023-04-08T09:31:36;13.57;54.87
75170;SHT31;63749;49.186;9.222;2023-04-08T09:34:15;13.65;54.59
75170;SHT31;63749;49.186;9.222;2023-04-08T09:36:46;13.11;54.08
75170;SHT31;63749;49.186;9.222;2023-04-08T09:39:13;13.02;55.70
75170;SHT31;63749;49.186;9.222;2023-04-08T09:41:39;13.03;54.68
75170;SHT31;63749;49.186;9.222;2023-04-08T09:44:07;13.24;55.88
75170;SHT31;63749;49.186;9.222;2023-04-08T09:46:51;13.45;55.60
75170;SHT31;63749;49.186;9.222;2023-04-08T09:54:18;13.58;52.83
75170;SHT31;63749;49.186;9.222;2023-04-08T09:57:00;13.57;53.35
75170;SHT31;63749;49.186;9.222;2023-04-08T09:59:29;13.50;54.17
75170;SHT31;63749;49.186;9.222;2023-04-08T10:02:00;13.92;54.35
75170;SHT31;63749;49.186;9.222;2023-04-08T10:04:31;13.75;52.16
75170;SHT31;63749;49.186;9.222;2023-04-08T10:07:03;13.53;52.51
75170;SHT31;63749;49.186;9.222;2023-04-08T10:09:30;13.47;53.07
75170;SHT31;63749;49.186;9.222;2023-04-08T10:11:56;13.81;53.11
75170;SHT31;63749;49.186;9.222;2023-04-08T10:14:22;13.72;52.62
75170;SHT31;63749;49.186;9.222;2023-04-08T10:16:47;13.69;52.60
75170;SHT31;63749;49.186;9.222;2023-04-08T10:19:42;13.81;52.32
75170;SHT31;63749;49.186;9.222;2023-04-08T10:27:50;13.50;52.35
75170;SHT31;63749;49.186;9.222;2023-04-08T10:30:39;13.30;55.02
75170;SHT31;63749;49.186;9.222;2023-04-08T10:33:14;13.44;54.80
75170;SHT31;63749;49.186;9.222;2023-04-08T10:35:47;13.06;55.02
75170;SHT31;63749;49.186;9.222;2023-04-08T10:38:14;13.31;55.13
75170;SHT31;63749;49.186;9.222;2023-04-08T10:40:40;13.16;54.28
75170;SHT31;63749;49.186;9.222;2023-04-08T10:43:11;12.97;54.72
75170;SHT31;63749;49.186;9.222;2023-04-08T10:45:38;12.93;54.92
75170;SHT31;63749;49.186;9.222;2023-04-08T10:50:37;12.89;53.75
75170;SHT31;63749;49.186;9.222;2023-04-08T10:53:03;12.83;53.55
75170;SHT31;63749;49.186;9.222;2023-04-08T10:55:29;12.65;54.12
75170;SHT31;63749;49.186;9.222;2023-04-08T10:58:07;12.46;55.23
75170;SHT31;63749;49.186;9.222;2023-04-08T11:00:34;12.55;55.63
75170;SHT31;63749;49.186;9.222;2023-04-08T11:03:07;12.65;55.73
75170;SHT31;63749;49.186;9.222;2023-04-08T11:05:33;12.42;54.47
75170;SHT31;63749;49.186;9.222;2023-04-08T11:08:00;12.70;55.46
75170;SHT31;63749;49.186;9.222;2023-04-08T11:10:27;12.79;54.73
75170;SHT31;63749;49.186;9.222;2023-04-08T11:12:56;12.72;53.85
75170;SHT31;63749;49.186;9.222;2023-04-08T11:15:23;12.75;53.32
75170;SHT31;63749;49.186;9.222;2023-04-08T11:17:49;12.69;53.77
75170;SHT31;63749;49.186;9.222;2023-04-08T11:20:16;12.73;53.91
75170;SHT31;63749;49.186;9.222;2023-04-08T11:22:43;12.79;52.75
75170;SHT31;63749;49.186;9.222;2023-04-08T11:25:09;13.07;52.33
75170;SHT31;63749;49.186;9.222;2023-04-08T11:27:35;13.08;51.97
75170;SHT31;63749;49.186;9.222;2023-04-08T11:30:02;13.00;50.35
75170;SHT31;63749;49.186;9.222;2023-04-08T11:32:29;12.95;50.57
75170;SHT31;63749;49.186;9.222;2023-04-08T11:34:54;13.11;50.30
75170;SHT31;63749;49.186;9.222;2023-04-08T11:37:20;13.44;50.15
75170;SHT31;63749;49.186;9.222;2023-04-08T11:39:46;13.45;49.62
75170;SHT31;63749;49.186;9.222;2023-04-08T11:42:27;13.75;48.58
75170;SHT31;63749;49.186;9.222;2023-04-08T11:44:53;13.86;48.82
75170;SHT31;63749;49.186;9.222;2023-04-08T11:47:18;14.51;48.69
75170;SHT31;63749;49.186;9.222;2023-04-08T11:49:44;15.05;46.52
75170;SHT31;63749;49.186;9.222;2023-04-08T11:52:10;14.75;46.44
75170;SHT31;63749;49.186;9.222;2023-04-08T11:54:40;14.92;45.63
75170;SHT31;63749;49.186;9.222;2023-04-08T11:57:07;14.80;45.95
75170;SHT31;63749;49.186;9.222;2023-04-08T11:59:34;14.68;46.14
75170;SHT31;63749;49.186;9.222;2023-04-08T12:02:00;14.96;46.21
75170;SHT31;63749;49.186;9.222;2023-04-08T12:04:26;15.04;45.87
75170;SHT31;63749;49.186;9.222;2023-04-08T12:06:51;14.51;46.27
75170;SHT31;63749;49.186;9.222;2023-04-08T12:09:17;14.64;47.66
75170;SHT31;63749;49.186;9.222;2023-04-08T12:11:43;14.59;46.85
75170;SHT31;63749;49.186;9.222;2023-04-08T12:14:08;14.64;47.36
75170;SHT31;63749;49.186;9.222;2023-04-08T12:16:34;14.80;45.95
75170;SHT31;63749;49.186;9.222;2023-04-08T12:18:59;14.64;47.30
75170;SHT31;63749;49.186;9.222;2023-04-08T12:21:25;14.70;47.18
75170;SHT31;63749;49.186;9.222;2023-04-08T12:23:51;14.56;47.14
75170;SHT31;63749;49.186;9.222;2023-04-08T12:26:17;14.83;47.81
75170;SHT31;63749;49.186;9.222;2023-04-08T12:28:43;14.75;47.15
75170;SHT31;63749;49.186;9.222;2023-04-08T12:31:10;14.68;46.49
75170;SHT31;63749;49.186;9.222;2023-04-08T12:33:35;14.61;46.95
75170;SHT31;63749;49.186;9.222;2023-04-08T12:36:01;14.88;47.20
75170;SHT31;63749;49.186;9.222;2023-04-08T12:38:27;15.52;49.39
75170;SHT31;63749;49.186;9.222;2023-04-08T12:40:53;15.84;44.25
75170;SHT31;63749;49.186;9.222;2023-04-08T12:43:19;15.46;45.18
75170;SHT31;63749;49.186;9.222;2023-04-08T12:45:45;16.05;45.09
75170;SHT31;63749;49.186;9.222;2023-04-08T12:48:11;15.74;43.93
75170;SHT31;63749;49.186;9.222;2023-04-08T12:50:36;16.44;44.56
75170;SHT31;63749;49.186;9.222;2023-04-08T12:53:02;16.42;43.21
75170;SHT31;63749;49.186;9.222;2023-04-08T12:55:27;16.38;41.90
75170;SHT31;63749;49.186;9.222;2023-04-08T12:57:53;15.79;43.27
75170;SHT31;63749;49.186;9.222;2023-04-08T13:00:18;15.80;43.70
75170;SHT31;63749;49.186;9.222;2023-04-08T13:02:44;16.51;42.21
75170;SHT31;63749;49.186;9.222;2023-04-08T13:05:10;16.26;44.36
75170;SHT31;63749;49.186;9.222;2023-04-08T13:07:35;16.01;43.68
75170;SHT31;63749;49.186;9.222;2023-04-08T13:10:01;16.36;43.03
75170;SHT31;63749;49.186;9.222;2023-04-08T13:12:28;16.00;43.95
75170;SHT31;63749;49.186;9.222;2023-04-08T13:14:54;16.03;44.12
75170;SHT31;63749;49.186;9.222;2023-04-08T13:17:19;15.73;44.66
75170;SHT31;63749;49.186;9.222;2023-04-08T13:19:45;15.70;44.38
75170;SHT31;63749;49.186;9.222;2023-04-08T13:22:11;15.64;45.16
75170;SHT31;63749;49.186;9.222;2023-04-08T13:24:38;14.96;46.48
75170;SHT31;63749;49.186;9.222;2023-04-08T13:27:03;15.08;46.17
75170;SHT31;63749;49.186;9.222;2023-04-08T13:29:29;14.91;48.23
75170;SHT31;63749;49.186;9.222;2023-04-08T13:31:54;14.96;48.65
75170;SHT31;63749;49.186;9.222;2023-04-08T13:34:20;14.74;47.48
75170;SHT31;63749;49.186;9.222;2023-04-08T13:36:45;14.83;47.76
75170;SHT31;63749;49.186;9.222;2023-04-08T13:39:10;14.70;47.84
75170;SHT31;63749;49.186;9.222;2023-04-08T13:41:36;14.63;48.08
75170;SHT31;63749;49.186;9.222;2023-04-08T13:44:01;14.60;47.66
75170;SHT31;63749;49.186;9.222;2023-04-08T13:46:27;14.36;48.46
75170;SHT31;63749;49.186;9.222;2023-04-08T13:48:53;14.26;49.23
75170;SHT31;63749;49.186;9.222;2023-04-08T13:51:19;14.37;50.31
75170;SHT31;63749;49.186;9.222;2023-04-08T13:53:44;14.41;49.72
75170;SHT31;63749;49.186;9.222;2023-04-08T13:56:09;14.29;50.14
75170;SHT31;63749;49.186;9.222;2023-04-08T13:58:35;14.26;50.09
75170;SHT31;63749;49.186;9.222;2023-04-08T14:01:01;13.75;51.51
75170;SHT31;63749;49.186;9.222;2023-04-08T14:03:26;13.55;52.13
75170;SHT31;63749;49.186;9.222;2023-04-08T14:05:52;13.67;52.82
75170;SHT31;63749;49.186;9.222;2023-04-08T14:08:17;13.71;52.87
75170;SHT31;63749;49.186;9.222;2023-04-08T14:10:49;13.47;52.94
75170;SHT31;63749;49.186;9.222;2023-04-08T14:13:16;13.40;53.33
75170;SHT31;63749;49.186;9.222;2023-04-08T14:15:41;13.45;53.77
75170;SHT31;63749;49.186;9.222;2023-04-08T14:18:06;13.34;53.49
75170;SHT31;63749;49.186;9.222;2023-04-08T14:20:32;13.28;53.91
75170;SHT31;63749;49.186;9.222;2023-04-08T14:22:59;13.00;54.35
75170;SHT31;63749;49.186;9.222;2023-04-08T14:25:25;12.83;54.67
75170;SHT31;63749;49.186;9.222;2023-04-08T14:27:50;12.82;55.05
75170;SHT31;63749;49.186;9.222;2023-04-08T14:30:16;12.75;55.78
75170;SHT31;63749;49.186;9.222;2023-04-08T14:32:41;12.87;56.46
75170;SHT31;63749;49.186;9.222;2023-04-08T14:35:07;13.00;56.45
75170;SHT31;63749;49.186;9.222;2023-04-08T14:37:33;12.99;56.94
75170;SHT31;63749;49.186;9.222;2023-04-08T14:39:58;13.03;58.28
75170;SHT31;63749;49.186;9.222;2023-04-08T14:42:24;13.10;57.52
75170;SHT31;63749;49.186;9.222;2023-04-08T14:44:49;13.10;57.04
75170;SHT31;63749;49.186;9.222;2023-04-08T14:47:14;13.10;56.77
75170;SHT31;63749;49.186;9.222;2023-04-08T14:49:40;13.47;56.78
75170;SHT31;63749;49.186;9.222;2023-04-08T14:52:05;13.57;56.16
75170;SHT31;63749;49.186;9.222;2023-04-08T14:54:30;13.67;56.24
75170;SHT31;63749;49.186;9.222;2023-04-08T14:56:56;13.41;55.59
75170;SHT31;63749;49.186;9.222;2023-04-08T14:59:22;13.36;55.36
75170;SHT31;63749;49.186;9.222;2023-04-08T15:01:47;12.96;55.78
75170;SHT31;63749;49.186;9.222;2023-04-08T15:04:13;12.59;57.75
75170;SHT31;63749;49.186;9.222;2023-04-08T15:06:38;12.32;58.85
75170;SHT31;63749;49.186;9.222;2023-04-08T15:09:04;12.52;59.36
75170;SHT31;63749;49.186;9.222;2023-04-08T15:11:30;12.55;59.42
75170;SHT31;63749;49.186;9.222;2023-04-08T15:13:55;12.46;59.87
75170;SHT31;63749;49.186;9.222;2023-04-08T15:16:21;12.27;59.62
75170;SHT31;63749;49.186;9.222;2023-04-08T15:18:46;12.25;60.26
75170;SHT31;63749;49.186;9.222;2023-04-08T15:21:12;12.32;59.91
75170;SHT31;63749;49.186;9.222;2023-04-08T15:23:37;12.38;60.27
75170;SHT31;63749;49.186;9.222;2023-04-08T15:26:06;12.41;59.66
75170;SHT31;63749;49.186;9.222;2023-04-08T15:28:32;12.27;59.44
75170;SHT31;63749;49.186;9.222;2023-04-08T15:30:57;12.41;59.69
75170;SHT31;63749;49.186;9.222;2023-04-08T15:33:22;12.29;59.80
75170;SHT31;63749;49.186;9.222;2023-04-08T15:35:48;12.42;59.71
75170;SHT31;63749;49.186;9.222;2023-04-08T15:38:13;12.46;59.55
75170;SHT31;63749;49.186;9.222;2023-04-08T15:40:39;12.44;59.37
75170;SHT31;63749;49.186;9.222;2023-04-08T15:43:04;12.37;60.38
75170;SHT31;63749;49.186;9.222;2023-04-08T15:45:30;12.44;59.74
75170;SHT31;63749;49.186;9.222;2023-04-08T15:47:55;12.48;60.12
75170;SHT31;63749;49.186;9.222;2023-04-08T15:50:21;12.52;59.59